createdAt,value
2019-01-26T00:03:07.383Z,95.90
2019-01-26T00:05:37.316Z,95.30
2019-01-26T00:08:06.830Z,95.30
2019-01-26T00:10:36.316Z,95.30
2019-01-26T00:13:05.804Z,95.30
2019-01-26T00:15:35.350Z,95.30
2019-01-26T00:18:04.961Z,95.50
2019-01-26T00:20:36.421Z,95.70
2019-01-26T00:23:05.602Z,95.60
2019-01-26T00:25:35.091Z,95.90
2019-01-26T00:28:04.493Z,96.60
2019-01-26T00:30:33.977Z,97.30
2019-01-26T00:33:03.436Z,97.90
2019-01-26T00:35:32.859Z,98.50
2019-01-26T00:38:02.313Z,99.20
2019-01-26T00:40:31.800Z,99.80
2019-01-26T00:43:01.123Z,99.90
2019-01-26T00:45:30.530Z,99.90
2019-01-26T00:48:00.027Z,99.90
2019-01-26T00:50:29.421Z,99.90
2019-01-26T00:52:58.817Z,99.90
2019-01-26T00:55:28.210Z,99.90
2019-01-26T00:57:57.703Z,99.90
2019-01-26T01:00:27.185Z,99.90
2019-01-26T01:02:56.544Z,99.90
2019-01-26T01:05:26.437Z,99.90
2019-01-26T01:07:55.910Z,99.90
2019-01-26T01:10:25.377Z,99.90
2019-01-26T01:12:54.793Z,99.90
2019-01-26T01:15:24.285Z,99.90
2019-01-26T01:17:53.683Z,99.90
2019-01-26T01:20:23.228Z,99.90
2019-01-26T01:22:52.690Z,99.90
2019-01-26T01:25:22.269Z,99.90
2019-01-26T01:27:51.685Z,99.90
2019-01-26T01:30:21.506Z,99.90
2019-01-26T01:32:50.913Z,99.90
2019-01-26T01:35:20.383Z,99.90
2019-01-26T01:37:49.848Z,99.90
2019-01-26T01:40:19.748Z,99.90
2019-01-26T01:42:49.219Z,99.90
2019-01-26T01:45:19.442Z,99.90
2019-01-26T01:47:48.996Z,99.90
2019-01-26T01:50:18.576Z,99.90
2019-01-26T01:52:47.982Z,99.90
2019-01-26T01:55:17.453Z,99.90
2019-01-26T01:57:47.124Z,99.90
2019-01-26T02:00:21.613Z,99.90
2019-01-26T02:02:51.081Z,99.90
2019-01-26T02:05:20.583Z,99.90
2019-01-26T02:07:50.444Z,99.90
2019-01-26T02:10:22.171Z,99.90
2019-01-26T02:12:51.649Z,99.90
2019-01-26T02:15:21.131Z,99.90
2019-01-26T02:17:50.517Z,99.90
2019-01-26T02:20:21.944Z,99.90
2019-01-26T02:22:51.360Z,99.90
2019-01-26T02:25:20.816Z,99.90
2019-01-26T02:27:50.295Z,99.90
2019-01-26T02:30:22.486Z,99.90
2019-01-26T02:32:52.063Z,99.90
2019-01-26T02:35:22.478Z,99.90
2019-01-26T02:37:54.919Z,99.90
2019-01-26T02:40:26.807Z,99.90
2019-01-26T02:42:56.201Z,99.90
2019-01-26T02:45:25.690Z,99.90
2019-01-26T02:47:55.097Z,99.90
2019-01-26T02:50:24.511Z,99.90
2019-01-26T02:52:53.812Z,99.90
2019-01-26T02:55:23.128Z,99.90
2019-01-26T02:57:52.424Z,99.90
2019-01-26T03:00:23.437Z,99.90
2019-01-26T03:02:52.766Z,99.90
2019-01-26T03:05:22.228Z,99.90
2019-01-26T03:07:51.612Z,99.90
2019-01-26T03:10:22.776Z,99.90
2019-01-26T03:12:52.159Z,99.90
2019-01-26T03:15:22.812Z,99.90
2019-01-26T03:17:52.267Z,99.90
2019-01-26T03:20:21.723Z,99.90
2019-01-26T03:22:51.198Z,99.90
2019-01-26T03:25:20.708Z,99.90
2019-01-26T03:27:50.077Z,99.90
2019-01-26T03:30:24.361Z,99.90
2019-01-26T03:32:53.788Z,99.90
2019-01-26T03:35:23.345Z,99.90
2019-01-26T03:37:52.705Z,99.90
2019-01-26T03:40:22.826Z,99.90
2019-01-26T03:42:52.396Z,99.90
2019-01-26T03:45:21.845Z,99.90
2019-01-26T03:47:51.213Z,99.90
2019-01-26T03:50:20.592Z,99.90
2019-01-26T03:52:49.964Z,99.90
2019-01-26T03:55:20.212Z,99.90
2019-01-26T03:57:50.087Z,99.90
2019-01-26T04:00:21.671Z,99.90
2019-01-26T04:02:51.110Z,99.90
2019-01-26T04:05:20.771Z,99.90
2019-01-26T04:07:50.221Z,99.90
2019-01-26T04:10:19.615Z,99.90
2019-01-26T04:12:49.061Z,99.90
2019-01-26T04:15:18.927Z,99.90
2019-01-26T04:17:48.484Z,99.90
2019-01-26T04:20:19.453Z,99.90
2019-01-26T04:22:49.005Z,99.90
2019-01-26T04:25:18.471Z,99.90
2019-01-26T04:27:47.942Z,99.90
2019-01-26T04:30:20.319Z,99.90
2019-01-26T04:32:49.757Z,99.90
2019-01-26T04:35:19.143Z,99.90
2019-01-26T04:37:48.441Z,99.90
2019-01-26T04:40:18.611Z,99.90
2019-01-26T04:42:48.004Z,99.90
2019-01-26T04:45:19.613Z,99.90
2019-01-26T04:47:49.121Z,99.90
2019-01-26T04:50:18.876Z,99.90
2019-01-26T04:52:48.332Z,99.90
2019-01-26T04:55:19.255Z,99.90
2019-01-26T04:57:48.840Z,99.90
2019-01-26T05:00:21.212Z,99.90
2019-01-26T05:02:50.649Z,99.90
2019-01-26T05:05:20.037Z,99.90
2019-01-26T05:07:49.398Z,99.90
2019-01-26T05:10:19.157Z,99.90
2019-01-26T05:12:48.845Z,99.90
2019-01-26T05:15:18.480Z,99.90
2019-01-26T05:17:47.776Z,99.90
2019-01-26T05:20:19.556Z,99.90
2019-01-26T05:22:48.957Z,99.90
2019-01-26T05:25:18.382Z,99.90
2019-01-26T05:27:47.684Z,99.90
2019-01-26T05:30:28.196Z,99.90
2019-01-26T05:32:57.560Z,99.90
2019-01-26T05:35:26.988Z,99.90
2019-01-26T05:37:56.293Z,99.90
2019-01-26T05:40:25.670Z,99.90
2019-01-26T05:42:55.124Z,99.90
2019-01-26T05:45:24.583Z,99.90
2019-01-26T05:47:53.978Z,99.90
2019-01-26T05:50:25.331Z,99.90
2019-01-26T05:52:55.017Z,99.90
2019-01-26T05:55:24.389Z,99.90
2019-01-26T05:57:53.766Z,99.90
2019-01-26T06:00:28.752Z,99.90
2019-01-26T06:02:58.184Z,99.90
2019-01-26T06:05:27.742Z,99.90
2019-01-26T06:07:57.191Z,99.90
2019-01-26T06:10:26.635Z,99.90
2019-01-26T06:12:56.201Z,99.90
2019-01-26T06:15:25.617Z,99.90
2019-01-26T06:17:55.457Z,99.90
2019-01-26T06:20:24.897Z,99.90
2019-01-26T06:22:54.271Z,99.90
2019-01-26T06:25:23.824Z,99.90
2019-01-26T06:27:53.181Z,99.90
2019-01-26T06:30:24.480Z,99.90
2019-01-26T06:32:53.953Z,99.90
2019-01-26T06:35:23.446Z,99.90
2019-01-26T06:37:52.896Z,99.90
2019-01-26T06:40:22.787Z,99.90
2019-01-26T06:42:52.277Z,99.90
2019-01-26T06:45:22.330Z,99.90
2019-01-26T06:47:51.796Z,99.90
2019-01-26T06:50:25.328Z,99.90
2019-01-26T06:52:54.796Z,99.90
2019-01-26T06:55:24.185Z,99.90
2019-01-26T06:57:53.808Z,99.90
2019-01-26T07:00:26.829Z,99.90
2019-01-26T07:02:56.298Z,99.90
2019-01-26T07:05:43.460Z,99.90
2019-01-26T07:08:16.952Z,99.90
2019-01-26T07:10:46.421Z,99.90
2019-01-26T07:13:15.800Z,99.90
2019-01-26T07:15:45.402Z,99.90
2019-01-26T07:18:14.844Z,99.90
2019-01-26T07:20:44.354Z,99.90
2019-01-26T07:23:13.725Z,99.90
2019-01-26T07:25:43.174Z,99.90
2019-01-26T07:28:12.559Z,99.90
2019-01-26T07:30:41.950Z,99.90
2019-01-26T07:33:11.420Z,99.90
2019-01-26T07:35:40.764Z,99.90
2019-01-26T07:38:13.793Z,99.90
2019-01-26T07:40:41.338Z,99.90
2019-01-26T07:43:10.804Z,99.90
2019-01-26T07:45:40.269Z,99.90
2019-01-26T07:48:16.555Z,99.90
2019-01-26T07:50:40.988Z,99.90
2019-01-26T07:53:10.465Z,99.90
2019-01-26T07:55:39.954Z,99.90
2019-01-26T07:58:09.540Z,99.90
2019-01-26T08:00:38.925Z,99.90
2019-01-26T08:03:08.393Z,99.90
2019-01-26T08:05:37.901Z,99.90
2019-01-26T08:08:07.646Z,99.90
2019-01-26T08:10:37.137Z,99.90
2019-01-26T08:13:06.646Z,99.90
2019-01-26T08:15:37.780Z,99.90
2019-01-26T08:18:08.861Z,99.90
2019-01-26T08:20:38.271Z,99.90
2019-01-26T08:23:07.584Z,99.90
2019-01-26T08:25:37.084Z,99.90
2019-01-26T08:28:06.557Z,99.90
2019-01-26T08:30:36.040Z,99.90
2019-01-26T08:33:05.600Z,99.90
2019-01-26T08:35:35.051Z,99.90
2019-01-26T08:38:05.381Z,99.90
2019-01-26T08:40:34.703Z,99.90
2019-01-26T08:43:04.157Z,99.90
2019-01-26T08:45:33.544Z,99.90
2019-01-26T08:48:03.024Z,99.90
2019-01-26T08:50:32.550Z,99.90
2019-01-26T08:53:02.007Z,99.90
2019-01-26T08:55:31.429Z,99.90
2019-01-26T08:58:00.838Z,99.90
2019-01-26T09:00:30.348Z,99.90
2019-01-26T09:03:18.921Z,99.90
2019-01-26T09:06:06.119Z,99.90
2019-01-26T09:08:35.617Z,99.90
2019-01-26T09:11:05.252Z,99.90
2019-01-26T09:13:34.632Z,99.90
2019-01-26T09:16:04.333Z,99.90
2019-01-26T09:18:38.778Z,99.90
2019-01-26T09:21:04.990Z,99.90
2019-01-26T09:23:34.413Z,99.90
2019-01-26T09:26:03.939Z,99.90
2019-01-26T09:28:33.504Z,99.90
2019-01-26T09:31:03.013Z,99.90
2019-01-26T09:33:32.449Z,99.90
2019-01-26T09:36:01.934Z,99.90
2019-01-26T09:38:31.378Z,99.90
2019-01-26T09:41:00.826Z,99.90
2019-01-26T09:43:30.196Z,99.90
2019-01-26T09:45:59.680Z,99.90
2019-01-26T09:48:29.201Z,99.90
2019-01-26T09:50:58.729Z,99.80
2019-01-26T09:53:28.200Z,99.60
2019-01-26T09:55:57.656Z,99.10
2019-01-26T09:58:27.072Z,98.90
2019-01-26T10:00:56.533Z,98.70
2019-01-26T10:03:25.856Z,98.40
2019-01-26T10:05:55.184Z,98.30
2019-01-26T10:08:24.502Z,98.30
2019-01-26T10:10:55.230Z,98.10
2019-01-26T10:13:25.028Z,98.10
2019-01-26T10:15:54.406Z,97.30
2019-01-26T10:18:23.875Z,96.90
2019-01-26T10:20:53.267Z,96.20
2019-01-26T10:23:22.717Z,95.80
2019-01-26T10:25:52.019Z,95.50
2019-01-26T10:28:21.427Z,95.60
2019-01-26T10:30:54.005Z,95.60
2019-01-26T10:33:23.436Z,95.30
2019-01-26T10:36:18.201Z,95.20
2019-01-26T10:38:51.549Z,94.90
2019-01-26T10:41:43.003Z,93.80
2019-01-26T10:44:17.004Z,91.50
2019-01-26T10:46:46.471Z,86.90
2019-01-26T10:49:15.861Z,84.20
2019-01-26T10:51:45.240Z,83.80
2019-01-26T10:54:14.659Z,83.80
2019-01-26T10:56:44.191Z,83.20
2019-01-26T10:59:13.699Z,78.80
2019-01-26T11:01:43.120Z,73.50
2019-01-26T11:04:12.485Z,70.80
2019-01-26T11:06:41.957Z,72.50
2019-01-26T11:09:12.550Z,77.30
2019-01-26T11:11:42.021Z,81.70
2019-01-26T11:14:11.460Z,85.90
2019-01-26T11:16:41.219Z,87.50
2019-01-26T11:19:10.671Z,90.00
2019-01-26T11:21:40.188Z,91.10
2019-01-26T11:24:09.476Z,92.10
2019-01-26T11:26:38.918Z,92.80
2019-01-26T11:29:08.245Z,93.30
2019-01-26T11:31:38.693Z,93.50
2019-01-26T11:34:08.128Z,93.90
2019-01-26T11:36:37.576Z,94.00
2019-01-26T11:39:11.807Z,93.20
2019-01-26T11:41:41.611Z,93.00
2019-01-26T11:44:11.117Z,92.80
2019-01-26T11:46:43.773Z,91.10
2019-01-26T11:49:15.274Z,90.20
2019-01-26T11:51:47.016Z,88.70
2019-01-26T11:54:16.322Z,86.50
2019-01-26T11:57:07.744Z,88.70
2019-01-26T11:59:38.865Z,90.60
2019-01-26T12:02:30.389Z,91.90
2019-01-26T12:05:08.390Z,92.80
2019-01-26T12:07:40.216Z,93.80
2019-01-26T12:10:12.726Z,94.40
2019-01-26T12:12:45.111Z,95.00
2019-01-26T12:15:15.524Z,95.40
2019-01-26T12:17:44.930Z,95.60
2019-01-26T12:20:15.568Z,96.10
2019-01-26T12:22:45.051Z,96.30
2019-01-26T12:25:14.524Z,96.30
2019-01-26T12:27:44.165Z,96.20
2019-01-26T12:30:13.780Z,96.30
2019-01-26T12:32:43.233Z,95.80
2019-01-26T12:35:13.611Z,96.00
2019-01-26T12:37:43.058Z,95.80
2019-01-26T12:40:12.614Z,95.80
2019-01-26T12:42:42.072Z,96.00
2019-01-26T12:45:14.913Z,96.10
2019-01-26T12:47:44.222Z,96.00
2019-01-26T12:50:13.711Z,96.40
2019-01-26T12:52:43.100Z,96.90
2019-01-26T12:55:13.951Z,97.50
2019-01-26T12:57:43.504Z,97.90
2019-01-26T13:00:16.401Z,98.30
2019-01-26T13:02:45.860Z,98.50
2019-01-26T13:05:15.351Z,98.30
2019-01-26T13:07:44.957Z,97.60
2019-01-26T13:10:18.256Z,97.90
2019-01-26T13:12:47.837Z,97.30
2019-01-26T13:15:17.308Z,97.50
2019-01-26T13:17:46.735Z,97.70
2019-01-26T13:20:16.415Z,97.60
2019-01-26T13:22:45.779Z,97.70
2019-01-26T13:25:16.087Z,97.70
2019-01-26T13:27:45.600Z,97.70
2019-01-26T13:30:17.269Z,97.60
2019-01-26T13:32:46.753Z,97.50
2019-01-26T13:35:16.356Z,97.70
2019-01-26T13:37:45.849Z,97.60
2019-01-26T13:40:17.436Z,97.90
2019-01-26T13:42:46.717Z,97.80
2019-01-26T13:45:16.185Z,97.90
2019-01-26T13:47:45.662Z,97.90
2019-01-26T13:50:15.226Z,98.30
2019-01-26T13:52:44.708Z,98.50
2019-01-26T13:55:16.392Z,98.80
2019-01-26T13:57:45.835Z,98.80
2019-01-26T14:00:21.545Z,98.80
2019-01-26T14:02:51.129Z,98.80
2019-01-26T14:05:20.753Z,98.70
2019-01-26T14:07:50.073Z,98.90
2019-01-26T14:10:20.449Z,98.90
2019-01-26T14:12:50.208Z,99.00
2019-01-26T14:15:19.828Z,99.00
2019-01-26T14:17:49.277Z,99.00
2019-01-26T14:20:20.656Z,99.10
2019-01-26T14:22:50.215Z,99.10
2019-01-26T14:25:19.760Z,99.10
2019-01-26T14:27:49.198Z,99.20
2019-01-26T14:30:27.377Z,99.10
2019-01-26T14:32:56.799Z,99.10
2019-01-26T14:35:26.165Z,99.40
2019-01-26T14:37:55.612Z,99.40
2019-01-26T14:40:25.081Z,99.40
2019-01-26T14:42:54.797Z,99.70
2019-01-26T14:45:24.383Z,99.70
2019-01-26T14:47:53.660Z,99.90
2019-01-26T14:50:23.168Z,99.90
2019-01-26T14:52:52.902Z,99.90
2019-01-26T14:55:23.541Z,99.90
2019-01-26T14:57:52.896Z,99.90
2019-01-26T15:00:25.213Z,99.90
2019-01-26T15:02:54.846Z,99.90
2019-01-26T15:05:24.521Z,99.90
2019-01-26T15:07:54.018Z,99.90
2019-01-26T15:10:23.782Z,99.90
2019-01-26T15:12:53.072Z,99.90
2019-01-26T15:15:22.528Z,99.90
2019-01-26T15:17:51.926Z,99.90
2019-01-26T15:20:24.304Z,99.90
2019-01-26T15:22:53.715Z,99.90
2019-01-26T15:25:23.331Z,99.90
2019-01-26T15:27:52.624Z,99.90
2019-01-26T15:30:25.707Z,99.90
2019-01-26T15:32:55.225Z,99.90
2019-01-26T15:35:24.674Z,99.90
2019-01-26T15:37:54.224Z,99.90
2019-01-26T15:40:23.805Z,99.90
2019-01-26T15:42:53.280Z,99.90
2019-01-26T15:45:25.678Z,99.90
2019-01-26T15:47:55.050Z,99.90
2019-01-26T15:50:24.502Z,99.90
2019-01-26T15:52:53.993Z,99.90
2019-01-26T15:55:24.318Z,99.90
2019-01-26T15:57:53.865Z,99.90
2019-01-26T16:00:25.905Z,99.90
2019-01-26T16:02:55.361Z,99.90
2019-01-26T16:05:24.709Z,99.90
2019-01-26T16:07:54.183Z,99.90
2019-01-26T16:10:23.796Z,99.90
2019-01-26T16:12:53.353Z,99.90
2019-01-26T16:15:24.985Z,99.90
2019-01-26T16:17:54.569Z,99.90
2019-01-26T16:20:24.373Z,99.90
2019-01-26T16:22:53.936Z,99.90
2019-01-26T16:25:23.368Z,99.90
2019-01-26T16:27:52.845Z,99.90
2019-01-26T16:30:27.378Z,99.90
2019-01-26T16:32:57.047Z,99.90
2019-01-26T16:35:26.545Z,99.90
2019-01-26T16:37:55.913Z,99.90
2019-01-26T16:40:30.604Z,99.90
2019-01-26T16:43:00.002Z,99.90
2019-01-26T16:45:31.713Z,99.90
2019-01-26T16:48:01.115Z,99.90
2019-01-26T16:50:33.365Z,99.90
2019-01-26T16:53:06.496Z,99.90
2019-01-26T16:55:35.940Z,99.90
2019-01-26T16:58:05.995Z,99.90
2019-01-26T17:00:37.795Z,99.90
2019-01-26T17:03:07.280Z,99.90
2019-01-26T17:05:39.623Z,99.90
2019-01-26T17:08:09.688Z,99.90
2019-01-26T17:10:39.308Z,99.90
2019-01-26T17:13:08.951Z,99.90
2019-01-26T17:15:38.412Z,99.90
2019-01-26T17:18:13.671Z,99.90
2019-01-26T17:20:41.579Z,99.90
2019-01-26T17:23:11.032Z,99.90
2019-01-26T17:25:40.334Z,99.90
2019-01-26T17:28:09.780Z,99.90
2019-01-26T17:30:40.917Z,99.90
2019-01-26T17:33:10.480Z,99.90
2019-01-26T17:35:39.992Z,99.90
2019-01-26T17:38:09.431Z,99.90
2019-01-26T17:40:39.016Z,99.90
2019-01-26T17:43:08.463Z,99.90
2019-01-26T17:45:37.932Z,99.90
2019-01-26T17:48:08.496Z,99.90
2019-01-26T17:50:42.030Z,99.90
2019-01-26T17:53:09.068Z,99.90
2019-01-26T17:55:38.705Z,99.90
2019-01-26T17:58:08.140Z,99.90
2019-01-26T18:00:56.503Z,99.90
2019-01-26T18:03:25.940Z,99.90
2019-01-26T18:05:55.312Z,99.90
2019-01-26T18:08:24.690Z,99.90
2019-01-26T18:10:54.073Z,99.90
2019-01-26T18:13:23.445Z,99.90
2019-01-26T18:15:52.822Z,99.90
2019-01-26T18:18:22.376Z,99.90
2019-01-26T18:20:51.772Z,99.90
2019-01-26T18:23:29.801Z,99.90
2019-01-26T18:25:59.272Z,99.90
2019-01-26T18:28:28.749Z,99.90
2019-01-26T18:30:58.180Z,99.90
2019-01-26T18:33:27.685Z,99.90
2019-01-26T18:35:57.197Z,99.90
2019-01-26T18:38:27.387Z,99.90
2019-01-26T18:40:56.830Z,99.90
2019-01-26T18:43:26.136Z,99.90
2019-01-26T18:45:55.540Z,99.90
2019-01-26T18:48:24.988Z,99.90
2019-01-26T18:50:56.406Z,99.90
2019-01-26T18:53:25.421Z,99.90
2019-01-26T18:55:54.738Z,99.90
2019-01-26T18:58:24.165Z,99.90
2019-01-26T19:00:53.484Z,99.90
2019-01-26T19:03:51.194Z,99.90
2019-01-26T19:06:20.512Z,99.90
2019-01-26T19:08:49.831Z,99.90
2019-01-26T19:11:19.221Z,99.90
2019-01-26T19:13:48.515Z,99.90
2019-01-26T19:16:17.980Z,99.90
2019-01-26T19:19:13.916Z,99.90
2019-01-26T19:21:42.932Z,99.90
2019-01-26T19:24:59.276Z,99.90
2019-01-26T19:27:27.705Z,99.90
2019-01-26T19:29:56.132Z,99.90
2019-01-26T19:32:24.545Z,99.90
2019-01-26T19:36:02.913Z,99.90
2019-01-26T19:41:26.281Z,99.90
2019-01-26T19:45:02.896Z,99.90
2019-01-26T19:47:31.749Z,99.90
2019-01-26T19:51:59.933Z,99.90
2019-01-26T19:54:26.825Z,99.90
2019-01-26T19:56:53.617Z,99.90
2019-01-26T19:59:20.495Z,99.90
2019-01-26T20:01:47.390Z,99.90
2019-01-26T20:04:14.410Z,99.90
2019-01-26T20:06:41.522Z,99.90
2019-01-26T20:09:09.431Z,99.90
2019-01-26T20:11:36.845Z,99.90
2019-01-26T20:14:03.845Z,99.90
2019-01-26T20:16:36.426Z,99.90
2019-01-26T20:18:59.581Z,99.90
2019-01-26T20:21:26.409Z,99.90
2019-01-26T20:23:53.433Z,99.90
2019-01-26T20:26:20.338Z,99.90
2019-01-26T20:28:47.314Z,99.90
2019-01-26T20:31:14.316Z,99.90
2019-01-26T20:33:41.298Z,99.90
2019-01-26T20:36:08.113Z,99.90
2019-01-26T20:38:34.900Z,99.90
2019-01-26T20:41:01.947Z,99.90
2019-01-26T20:43:28.892Z,99.90
2019-01-26T20:45:55.685Z,99.90
2019-01-26T20:48:22.569Z,99.90
2019-01-26T20:50:49.451Z,99.90
2019-01-26T20:53:16.440Z,99.90
2019-01-26T20:55:43.340Z,99.90
2019-01-26T20:58:10.219Z,99.90
2019-01-26T21:00:37.193Z,99.90
2019-01-26T21:03:04.088Z,99.90
2019-01-26T21:05:31.058Z,99.90
2019-01-26T21:07:58.324Z,99.90
2019-01-26T21:10:27.287Z,99.90
2019-01-26T21:12:54.281Z,99.90
2019-01-26T21:15:21.267Z,99.90
2019-01-26T21:17:48.264Z,99.90
2019-01-26T21:20:27.317Z,99.90
2019-01-26T21:22:57.285Z,99.90
2019-01-26T21:25:27.023Z,99.90
2019-01-26T21:27:54.037Z,99.90
2019-01-26T21:30:25.430Z,99.90
2019-01-26T21:32:52.521Z,99.90
2019-01-26T21:35:19.652Z,99.90
2019-01-26T21:37:46.664Z,99.90
2019-01-26T21:40:16.342Z,99.90
2019-01-26T21:42:43.237Z,99.90
2019-01-26T21:45:11.161Z,99.90
2019-01-26T21:47:38.762Z,99.90
2019-01-26T21:50:09.044Z,99.90
2019-01-26T21:52:41.102Z,99.90
2019-01-26T21:55:07.161Z,99.90
2019-01-26T21:57:34.169Z,99.90
2019-01-26T22:00:01.026Z,99.90
2019-01-26T22:02:27.901Z,99.90
2019-01-26T22:04:54.707Z,99.90
2019-01-26T22:07:21.671Z,99.90
2019-01-26T22:09:48.791Z,99.90
2019-01-26T22:12:15.681Z,99.60
2019-01-26T22:14:42.500Z,99.40
2019-01-26T22:17:09.268Z,99.10
2019-01-26T22:19:36.087Z,98.90
2019-01-26T22:22:03.071Z,98.90
2019-01-26T22:24:29.985Z,98.90
2019-01-26T22:26:56.865Z,99.00
2019-01-26T22:29:23.757Z,99.30
2019-01-26T22:31:50.841Z,99.30
2019-01-26T22:34:17.625Z,99.40
2019-01-26T22:36:44.527Z,99.40
2019-01-26T22:39:11.604Z,99.50
2019-01-26T22:41:38.373Z,99.40
2019-01-26T22:44:05.349Z,99.40
2019-01-26T22:46:32.413Z,99.20
2019-01-26T22:48:59.297Z,99.20
2019-01-26T22:51:26.083Z,99.10
2019-01-26T22:53:52.968Z,99.00
2019-01-26T22:56:19.846Z,99.00
2019-01-26T22:58:46.745Z,99.00
2019-01-26T23:01:20.041Z,98.80
2019-01-26T23:04:09.205Z,98.90
2019-01-26T23:07:29.492Z,99.10
2019-01-26T23:10:04.346Z,99.30
2019-01-26T23:12:57.109Z,99.30
2019-01-26T23:16:14.017Z,99.20
2019-01-26T23:18:55.990Z,99.10
2019-01-26T23:22:01.569Z,98.90
2019-01-26T23:24:52.013Z,99.00
2019-01-26T23:27:38.510Z,98.90
2019-01-26T23:30:56.597Z,98.90
2019-01-26T23:33:23.454Z,98.90
2019-01-26T23:35:50.328Z,99.00
2019-01-26T23:38:17.317Z,98.90
2019-01-26T23:40:44.401Z,98.90
2019-01-26T23:43:11.300Z,99.00
2019-01-26T23:45:38.197Z,99.10
2019-01-26T23:48:05.156Z,99.30
2019-01-26T23:50:32.032Z,99.30
2019-01-26T23:52:58.809Z,99.50
2019-01-26T23:55:25.791Z,99.70
2019-01-26T23:57:52.560Z,99.80
